sensor_id;sensor_type;location;lat;lon;timestamp;pressure;altitude;pressure_sealevel;temperature;humidity
65760;BME280;52496;51.082;5.066;2023-03-26T00:00:15;100684.09;;;7.61;100.00
65760;BME280;52496;51.082;5.066;2023-03-26T00:02:45;100680.56;;;7.61;100.00
65760;BME280;52496;51.082;5.066;2023-03-26T00:05:16;100681.59;;;7.59;100.00
65760;BME280;52496;51.082;5.066;2023-03-26T00:07:46;100673.78;;;7.58;100.00
65760;BME280;52496;51.082;5.066;2023-03-26T00:10:17;100668.78;;;7.55;100.00
65760;BME280;52496;51.082;5.066;2023-03-26T00:12:48;100671.63;;;7.53;100.00
65760;BME280;52496;51.082;5.066;2023-03-26T00:15:18;100669.13;;;7.52;100.00
65760;BME280;52496;51.082;5.066;2023-03-26T00:17:49;100666.63;;;7.50;100.00
65760;BME280;52496;51.082;5.066;2023-03-26T00:20:19;100667.44;;;7.51;100.00
65760;BME280;52496;51.082;5.066;2023-03-26T00:22:50;100660.13;;;7.53;100.00
65760;BME280;52496;51.082;5.066;2023-03-26T00:25:21;100659.13;;;7.54;100.00
65760;BME280;52496;51.082;5.066;2023-03-26T00:27:52;100653.66;;;7.55;100.00
65760;BME280;52496;51.082;5.066;2023-03-26T00:30:23;100653.47;;;7.57;100.00
65760;BME280;52496;51.082;5.066;2023-03-26T00:32:54;100643.50;;;7.59;100.00
65760;BME280;52496;51.082;5.066;2023-03-26T00:35:24;100636.19;;;7.61;100.00
65760;BME280;52496;51.082;5.066;2023-03-26T00:37:55;100637.50;;;7.65;100.00
65760;BME280;52496;51.082;5.066;2023-03-26T00:40:27;100631.00;;;7.68;100.00
65760;BME280;52496;51.082;5.066;2023-03-26T00:42:59;100626.84;;;7.73;100.00
65760;BME280;52496;51.082;5.066;2023-03-26T00:45:29;100624.66;;;7.77;100.00
65760;BME280;52496;51.082;5.066;2023-03-26T00:48:00;100615.31;;;7.81;100.00
65760;BME280;52496;51.082;5.066;2023-03-26T00:50:30;100617.13;;;7.89;100.00
65760;BME280;52496;51.082;5.066;2023-03-26T00:53:00;100617.63;;;7.92;100.00
65760;BME280;52496;51.082;5.066;2023-03-26T00:55:32;100619.59;;;7.98;100.00
65760;BME280;52496;51.082;5.066;2023-03-26T00:58:03;100616.38;;;8.03;100.00
65760;BME280;52496;51.082;5.066;2023-03-26T01:00:35;100624.03;;;8.06;100.00
65760;BME280;52496;51.082;5.066;2023-03-26T01:03:09;100613.03;;;8.09;100.00
65760;BME280;52496;51.082;5.066;2023-03-26T01:05:46;100609.88;;;8.14;100.00
65760;BME280;52496;51.082;5.066;2023-03-26T01:11:00;100603.00;;;8.19;100.00
65760;BME280;52496;51.082;5.066;2023-03-26T01:13:36;100600.97;;;8.21;100.00
65760;BME280;52496;51.082;5.066;2023-03-26T01:16:14;100599.66;;;8.25;100.00
65760;BME280;52496;51.082;5.066;2023-03-26T01:18:49;100591.66;;;8.25;100.00
65760;BME280;52496;51.082;5.066;2023-03-26T01:21:24;100578.97;;;8.27;100.00
65760;BME280;52496;51.082;5.066;2023-03-26T01:24:07;100590.28;;;8.30;100.00
65760;BME280;52496;51.082;5.066;2023-03-26T01:41:08;100556.88;;;8.50;100.00
65760;BME280;52496;51.082;5.066;2023-03-26T01:44:14;100556.06;;;8.49;100.00
65760;BME280;52496;51.082;5.066;2023-03-26T01:46:47;100557.88;;;8.49;100.00
65760;BME280;52496;51.082;5.066;2023-03-26T01:49:19;100554.38;;;8.48;100.00
65760;BME280;52496;51.082;5.066;2023-03-26T01:51:50;100549.41;;;8.45;100.00
65760;BME280;52496;51.082;5.066;2023-03-26T01:54:23;100548.59;;;8.45;100.00
65760;BME280;52496;51.082;5.066;2023-03-26T02:05:51;100527.16;;;8.38;100.00
65760;BME280;52496;51.082;5.066;2023-03-26T02:08:31;100527.16;;;8.38;100.00
65760;BME280;52496;51.082;5.066;2023-03-26T02:11:09;100521.97;;;8.37;100.00
65760;BME280;52496;51.082;5.066;2023-03-26T02:13:44;100523.81;;;8.36;100.00
65760;BME280;52496;51.082;5.066;2023-03-26T02:16:16;100516.00;;;8.35;100.00
65760;BME280;52496;51.082;5.066;2023-03-26T02:18:48;100510.66;;;8.35;100.00
65760;BME280;52496;51.082;5.066;2023-03-26T02:21:22;100503.66;;;8.34;100.00
65760;BME280;52496;51.082;5.066;2023-03-26T02:23:56;100495.03;;;8.32;100.00
65760;BME280;52496;51.082;5.066;2023-03-26T02:26:34;100493.56;;;8.29;100.00
65760;BME280;52496;51.082;5.066;2023-03-26T02:29:06;100486.75;;;8.26;100.00
65760;BME280;52496;51.082;5.066;2023-03-26T02:31:37;100476.44;;;8.23;100.00
65760;BME280;52496;51.082;5.066;2023-03-26T02:34:08;100482.94;;;8.21;100.00
65760;BME280;52496;51.082;5.066;2023-03-26T02:36:39;100474.34;;;8.19;100.00
65760;BME280;52496;51.082;5.066;2023-03-26T02:39:11;100465.84;;;8.15;100.00
65760;BME280;52496;51.082;5.066;2023-03-26T02:41:43;100467.06;;;8.13;100.00
65760;BME280;52496;51.082;5.066;2023-03-26T02:44:14;100457.75;;;8.09;100.00
65760;BME280;52496;51.082;5.066;2023-03-26T02:46:44;100449.13;;;8.07;100.00
65760;BME280;52496;51.082;5.066;2023-03-26T02:49:16;100447.44;;;8.05;100.00
65760;BME280;52496;51.082;5.066;2023-03-26T02:51:46;100443.28;;;8.03;100.00
65760;BME280;52496;51.082;5.066;2023-03-26T02:54:17;100436.53;;;8.00;100.00
65760;BME280;52496;51.082;5.066;2023-03-26T02:56:47;100433.84;;;8.00;100.00
65760;BME280;52496;51.082;5.066;2023-03-26T02:59:18;100424.38;;;7.98;100.00
65760;BME280;52496;51.082;5.066;2023-03-26T03:01:48;100420.91;;;7.97;100.00
65760;BME280;52496;51.082;5.066;2023-03-26T03:04:19;100405.09;;;7.96;100.00
65760;BME280;52496;51.082;5.066;2023-03-26T03:06:50;100406.72;;;7.97;100.00
65760;BME280;52496;51.082;5.066;2023-03-26T03:09:26;100410.41;;;7.96;100.00
65760;BME280;52496;51.082;5.066;2023-03-26T03:11:57;100399.75;;;7.96;100.00
65760;BME280;52496;51.082;5.066;2023-03-26T03:14:27;100399.09;;;7.94;100.00
65760;BME280;52496;51.082;5.066;2023-03-26T03:16:57;100395.63;;;7.93;100.00
65760;BME280;52496;51.082;5.066;2023-03-26T03:19:28;100392.31;;;7.91;100.00
65760;BME280;52496;51.082;5.066;2023-03-26T03:21:58;100379.16;;;7.90;100.00
65760;BME280;52496;51.082;5.066;2023-03-26T03:24:29;100378.16;;;7.91;100.00
65760;BME280;52496;51.082;5.066;2023-03-26T03:27:03;100369.34;;;7.90;100.00
65760;BME280;52496;51.082;5.066;2023-03-26T03:29:34;100367.50;;;7.91;100.00
65760;BME280;52496;51.082;5.066;2023-03-26T03:32:04;100366.53;;;7.92;100.00
65760;BME280;52496;51.082;5.066;2023-03-26T03:34:35;100357.50;;;7.93;100.00
65760;BME280;52496;51.082;5.066;2023-03-26T03:37:07;100351.81;;;7.96;100.00
65760;BME280;52496;51.082;5.066;2023-03-26T03:39:38;100333.38;;;7.94;100.00
65760;BME280;52496;51.082;5.066;2023-03-26T03:42:08;100327.22;;;7.94;100.00
65760;BME280;52496;51.082;5.066;2023-03-26T03:44:39;100321.88;;;7.94;100.00
65760;BME280;52496;51.082;5.066;2023-03-26T03:47:10;100312.25;;;7.93;100.00
65760;BME280;52496;51.082;5.066;2023-03-26T03:49:42;100303.59;;;7.91;100.00
65760;BME280;52496;51.082;5.066;2023-03-26T03:52:13;100299.31;;;7.90;100.00
65760;BME280;52496;51.082;5.066;2023-03-26T03:54:43;100295.97;;;7.88;100.00
65760;BME280;52496;51.082;5.066;2023-03-26T03:57:14;100302.97;;;7.89;100.00
65760;BME280;52496;51.082;5.066;2023-03-26T03:59:45;100305.19;;;7.85;100.00
65760;BME280;52496;51.082;5.066;2023-03-26T04:02:17;100293.69;;;7.85;100.00
65760;BME280;52496;51.082;5.066;2023-03-26T04:04:56;100292.03;;;7.84;100.00
65760;BME280;52496;51.082;5.066;2023-03-26T04:07:29;100287.72;;;7.82;100.00
65760;BME280;52496;51.082;5.066;2023-03-26T04:10:01;100285.06;;;7.82;100.00
65760;BME280;52496;51.082;5.066;2023-03-26T04:12:32;100275.03;;;7.85;100.00
65760;BME280;52496;51.082;5.066;2023-03-26T04:15:03;100266.06;;;7.86;100.00
65760;BME280;52496;51.082;5.066;2023-03-26T04:17:33;100261.72;;;7.85;100.00
65760;BME280;52496;51.082;5.066;2023-03-26T04:20:11;100249.28;;;7.85;100.00
65760;BME280;52496;51.082;5.066;2023-03-26T04:22:44;100246.41;;;7.87;100.00
65760;BME280;52496;51.082;5.066;2023-03-26T04:25:15;100241.09;;;7.87;100.00
65760;BME280;52496;51.082;5.066;2023-03-26T04:27:46;100226.97;;;7.86;100.00
65760;BME280;52496;51.082;5.066;2023-03-26T04:30:18;100221.81;;;7.85;100.00
65760;BME280;52496;51.082;5.066;2023-03-26T04:32:52;100216.47;;;7.85;100.00
65760;BME280;52496;51.082;5.066;2023-03-26T04:35:27;100206.69;;;7.85;100.00
65760;BME280;52496;51.082;5.066;2023-03-26T04:38:00;100207.50;;;7.86;100.00
65760;BME280;52496;51.082;5.066;2023-03-26T04:40:35;100203.81;;;7.87;100.00
65760;BME280;52496;51.082;5.066;2023-03-26T04:43:14;100203.00;;;7.86;100.00
65760;BME280;52496;51.082;5.066;2023-03-26T04:45:48;100194.19;;;7.86;100.00
65760;BME280;52496;51.082;5.066;2023-03-26T04:48:19;100188.88;;;7.86;100.00
65760;BME280;52496;51.082;5.066;2023-03-26T04:50:49;100177.56;;;7.84;100.00
65760;BME280;52496;51.082;5.066;2023-03-26T04:53:20;100177.56;;;7.84;100.00
65760;BME280;52496;51.082;5.066;2023-03-26T04:55:54;100169.59;;;7.84;100.00
65760;BME280;52496;51.082;5.066;2023-03-26T04:58:26;100167.09;;;7.82;100.00
65760;BME280;52496;51.082;5.066;2023-03-26T05:01:01;100163.59;;;7.81;100.00
65760;BME280;52496;51.082;5.066;2023-03-26T05:03:32;100166.28;;;7.81;100.00
65760;BME280;52496;51.082;5.066;2023-03-26T05:06:03;100147.63;;;7.81;100.00
65760;BME280;52496;51.082;5.066;2023-03-26T05:08:33;100152.97;;;7.81;100.00
65760;BME280;52496;51.082;5.066;2023-03-26T05:11:04;100150.13;;;7.83;100.00
65760;BME280;52496;51.082;5.066;2023-03-26T05:13:40;100157.91;;;7.85;100.00
65760;BME280;52496;51.082;5.066;2023-03-26T05:16:12;100161.22;;;7.87;100.00
65760;BME280;52496;51.082;5.066;2023-03-26T05:18:42;100155.91;;;7.87;100.00
65760;BME280;52496;51.082;5.066;2023-03-26T05:21:13;100154.06;;;7.87;100.00
65760;BME280;52496;51.082;5.066;2023-03-26T05:23:44;100149.56;;;7.88;100.00
65760;BME280;52496;51.082;5.066;2023-03-26T05:26:14;100145.91;;;7.89;100.00
65760;BME280;52496;51.082;5.066;2023-03-26T05:28:45;100147.56;;;7.90;100.00
65760;BME280;52496;51.082;5.066;2023-03-26T05:31:17;100139.56;;;7.90;100.00
65760;BME280;52496;51.082;5.066;2023-03-26T05:33:50;100135.28;;;7.89;100.00
65760;BME280;52496;51.082;5.066;2023-03-26T05:36:21;100130.56;;;7.91;100.00
65760;BME280;52496;51.082;5.066;2023-03-26T05:38:52;100124.41;;;7.90;100.00
65760;BME280;52496;51.082;5.066;2023-03-26T05:41:23;100124.41;;;7.90;100.00
65760;BME280;52496;51.082;5.066;2023-03-26T05:43:53;100119.91;;;7.91;100.00
65760;BME280;52496;51.082;5.066;2023-03-26T05:46:24;100118.28;;;7.90;100.00
65760;BME280;52496;51.082;5.066;2023-03-26T05:48:55;100112.94;;;7.90;100.00
65760;BME280;52496;51.082;5.066;2023-03-26T05:51:25;100121.59;;;7.92;100.00
65760;BME280;52496;51.082;5.066;2023-03-26T05:53:56;100116.25;;;7.92;100.00
65760;BME280;52496;51.082;5.066;2023-03-26T05:56:26;100109.91;;;7.93;100.00
65760;BME280;52496;51.082;5.066;2023-03-26T05:59:01;100107.25;;;7.93;100.00
65760;BME280;52496;51.082;5.066;2023-03-26T06:01:31;100101.94;;;7.93;100.00
65760;BME280;52496;51.082;5.066;2023-03-26T06:04:02;100103.56;;;7.94;100.00
65760;BME280;52496;51.082;5.066;2023-03-26T06:06:32;100096.63;;;7.93;100.00
65760;BME280;52496;51.082;5.066;2023-03-26T06:09:03;100102.75;;;7.93;100.00
65760;BME280;52496;51.082;5.066;2023-03-26T06:11:33;100090.91;;;7.96;100.00
65760;BME280;52496;51.082;5.066;2023-03-26T06:14:08;100096.25;;;7.96;100.00
65760;BME280;52496;51.082;5.066;2023-03-26T06:16:40;100091.72;;;7.96;100.00
65760;BME280;52496;51.082;5.066;2023-03-26T06:19:10;100083.56;;;7.98;100.00
65760;BME280;52496;51.082;5.066;2023-03-26T06:21:41;100085.41;;;7.97;100.00
65760;BME280;52496;51.082;5.066;2023-03-26T06:24:11;100078.25;;;7.98;100.00
65760;BME280;52496;51.082;5.066;2023-03-26T06:26:42;100070.88;;;8.00;100.00
65760;BME280;52496;51.082;5.066;2023-03-26T06:29:13;100068.03;;;8.01;100.00
65760;BME280;52496;51.082;5.066;2023-03-26T06:31:44;100069.69;;;8.02;100.00
65760;BME280;52496;51.082;5.066;2023-03-26T06:34:15;100063.38;;;8.03;100.00
65760;BME280;52496;51.082;5.066;2023-03-26T06:36:49;100065.84;;;8.05;100.00
65760;BME280;52496;51.082;5.066;2023-03-26T06:39:21;100063.00;;;8.07;100.00
65760;BME280;52496;51.082;5.066;2023-03-26T06:41:52;100065.66;;;8.07;100.00
65760;BME280;52496;51.082;5.066;2023-03-26T06:44:23;100061.16;;;8.07;100.00
65760;BME280;52496;51.082;5.066;2023-03-26T06:46:53;100059.47;;;8.06;100.00
65760;BME280;52496;51.082;5.066;2023-03-26T06:49:24;100062.78;;;8.08;100.00
65760;BME280;52496;51.082;5.066;2023-03-26T06:51:55;100059.09;;;8.09;100.00
65760;BME280;52496;51.082;5.066;2023-03-26T06:54:26;100050.94;;;8.11;100.00
65760;BME280;52496;51.082;5.066;2023-03-26T06:56:57;100053.41;;;8.12;100.00
65760;BME280;52496;51.082;5.066;2023-03-26T06:59:29;100049.75;;;8.13;100.00
65760;BME280;52496;51.082;5.066;2023-03-26T07:02:00;100057.75;;;8.13;100.00
65760;BME280;52496;51.082;5.066;2023-03-26T07:04:30;100051.41;;;8.14;100.00
65760;BME280;52496;51.082;5.066;2023-03-26T07:07:02;100049.94;;;8.12;100.00
65760;BME280;52496;51.082;5.066;2023-03-26T07:09:32;100046.44;;;8.11;100.00
65760;BME280;52496;51.082;5.066;2023-03-26T07:12:03;100041.13;;;8.11;100.00
65760;BME280;52496;51.082;5.066;2023-03-26T07:14:34;100040.31;;;8.11;100.00
65760;BME280;52496;51.082;5.066;2023-03-26T07:17:08;100038.66;;;8.10;100.00
65760;BME280;52496;51.082;5.066;2023-03-26T07:19:38;100030.47;;;8.11;100.00
65760;BME280;52496;51.082;5.066;2023-03-26T07:22:18;100030.84;;;8.08;100.00
65760;BME280;52496;51.082;5.066;2023-03-26T07:24:50;100030.66;;;8.10;100.00
65760;BME280;52496;51.082;5.066;2023-03-26T07:30:45;100023.88;;;8.07;100.00
65760;BME280;52496;51.082;5.066;2023-03-26T07:41:52;100011.56;;;8.06;100.00
65760;BME280;52496;51.082;5.066;2023-03-26T07:44:31;100007.63;;;8.02;100.00
65760;BME280;52496;51.082;5.066;2023-03-26T07:47:30;100005.63;;;8.04;100.00
65760;BME280;52496;51.082;5.066;2023-03-26T07:50:02;99995.97;;;8.03;100.00
65760;BME280;52496;51.082;5.066;2023-03-26T07:52:33;99996.97;;;8.02;100.00
65760;BME280;52496;51.082;5.066;2023-03-26T07:55:04;99989.81;;;8.02;100.00
65760;BME280;52496;51.082;5.066;2023-03-26T07:57:51;99990.63;;;8.03;100.00
65760;BME280;52496;51.082;5.066;2023-03-26T08:00:43;99987.97;;;8.03;100.00
65760;BME280;52496;51.082;5.066;2023-03-26T08:06:55;99989.06;;;8.09;100.00
65760;BME280;52496;51.082;5.066;2023-03-26T08:14:54;99975.56;;;8.10;100.00
65760;BME280;52496;51.082;5.066;2023-03-26T08:17:35;99971.50;;;8.14;100.00
65760;BME280;52496;51.082;5.066;2023-03-26T08:25:56;99964.97;;;8.17;100.00
65760;BME280;52496;51.082;5.066;2023-03-26T08:28:36;99970.09;;;8.18;100.00
65760;BME280;52496;51.082;5.066;2023-03-26T08:31:10;99966.25;;;8.21;100.00
65760;BME280;52496;51.082;5.066;2023-03-26T08:33:42;99960.53;;;8.24;100.00
65760;BME280;52496;51.082;5.066;2023-03-26T08:36:14;99966.28;;;8.27;100.00
65760;BME280;52496;51.082;5.066;2023-03-26T08:38:44;99961.34;;;8.24;100.00
65760;BME280;52496;51.082;5.066;2023-03-26T08:41:35;99959.31;;;8.26;100.00
65760;BME280;52496;51.082;5.066;2023-03-26T09:02:05;99934.59;;;8.11;100.00
65760;BME280;52496;51.082;5.066;2023-03-26T09:11:04;99946.50;;;8.15;100.00
65760;BME280;52496;51.082;5.066;2023-03-26T09:19:55;99936.88;;;8.14;100.00
65760;BME280;52496;51.082;5.066;2023-03-26T09:23:03;99941.56;;;8.12;100.00
65760;BME280;52496;51.082;5.066;2023-03-26T09:34:33;99938.66;;;8.07;100.00
65760;BME280;52496;51.082;5.066;2023-03-26T09:40:16;99934.59;;;8.11;100.00
65760;BME280;52496;51.082;5.066;2023-03-26T09:48:24;99937.22;;;8.04;100.00
65760;BME280;52496;51.082;5.066;2023-03-26T09:59:23;99944.88;;;8.14;100.00
65760;BME280;52496;51.082;5.066;2023-03-26T10:08:01;99956.16;;;8.16;100.00
65760;BME280;52496;51.082;5.066;2023-03-26T10:10:52;99956.41;;;8.21;100.00
65760;BME280;52496;51.082;5.066;2023-03-26T10:16:32;99958.31;;;8.27;100.00
65760;BME280;52496;51.082;5.066;2023-03-26T10:22:19;99955.63;;;8.27;100.00
65760;BME280;52496;51.082;5.066;2023-03-26T10:25:21;99965.31;;;8.28;100.00
65760;BME280;52496;51.082;5.066;2023-03-26T10:33:37;99971.63;;;8.27;100.00
65760;BME280;52496;51.082;5.066;2023-03-26T10:50:40;99981.63;;;8.40;100.00
65760;BME280;52496;51.082;5.066;2023-03-26T10:56:28;99987.84;;;8.47;100.00
65760;BME280;52496;51.082;5.066;2023-03-26T10:59:07;99989.94;;;8.52;100.00
65760;BME280;52496;51.082;5.066;2023-03-26T11:07:44;99999.88;;;8.65;100.00
65760;BME280;52496;51.082;5.066;2023-03-26T11:13:50;100008.94;;;8.70;100.00
65760;BME280;52496;51.082;5.066;2023-03-26T11:22:33;100018.81;;;8.98;100.00
65760;BME280;52496;51.082;5.066;2023-03-26T11:30:53;100019.94;;;9.17;100.00
65760;BME280;52496;51.082;5.066;2023-03-26T11:33:40;100025.84;;;9.12;100.00
65760;BME280;52496;51.082;5.066;2023-03-26T11:36:19;100029.16;;;9.14;100.00
65760;BME280;52496;51.082;5.066;2023-03-26T11:38:52;100026.97;;;9.25;100.00
65760;BME280;52496;51.082;5.066;2023-03-26T11:41:27;100019.44;;;9.35;100.00
65760;BME280;52496;51.082;5.066;2023-03-26T11:46:55;100028.91;;;9.37;100.00
65760;BME280;52496;51.082;5.066;2023-03-26T11:49:28;100028.28;;;9.35;100.00
65760;BME280;52496;51.082;5.066;2023-03-26T11:51:58;100032.00;;;9.41;100.00
65760;BME280;52496;51.082;5.066;2023-03-26T11:54:31;100034.03;;;9.39;100.00
65760;BME280;52496;51.082;5.066;2023-03-26T11:57:06;100040.97;;;9.33;100.00
65760;BME280;52496;51.082;5.066;2023-03-26T11:59:51;100040.56;;;9.30;100.00
65760;BME280;52496;51.082;5.066;2023-03-26T12:02:29;100044.25;;;9.29;100.00
65760;BME280;52496;51.082;5.066;2023-03-26T12:12:57;100051.47;;;9.35;100.00
65760;BME280;52496;51.082;5.066;2023-03-26T12:15:29;100060.94;;;9.37;100.00
65760;BME280;52496;51.082;5.066;2023-03-26T12:18:27;100050.28;;;9.44;100.00
65760;BME280;52496;51.082;5.066;2023-03-26T12:23:57;100065.34;;;9.58;100.00
65760;BME280;52496;51.082;5.066;2023-03-26T12:26:40;100064.53;;;9.58;100.00
65760;BME280;52496;51.082;5.066;2023-03-26T12:29:13;100073.75;;;9.55;100.00
65760;BME280;52496;51.082;5.066;2023-03-26T12:31:54;100066.97;;;9.53;100.00
65760;BME280;52496;51.082;5.066;2023-03-26T12:34:33;100066.13;;;9.52;100.00
65760;BME280;52496;51.082;5.066;2023-03-26T12:37:06;100085.06;;;9.57;100.00
65760;BME280;52496;51.082;5.066;2023-03-26T12:42:29;100080.75;;;9.56;100.00
65760;BME280;52496;51.082;5.066;2023-03-26T12:45:00;100087.94;;;9.56;100.00
65760;BME280;52496;51.082;5.066;2023-03-26T12:47:32;100087.97;;;9.62;100.00
65760;BME280;52496;51.082;5.066;2023-03-26T12:50:10;100086.41;;;9.75;100.00
65760;BME280;52496;51.082;5.066;2023-03-26T12:52:58;100091.75;;;9.75;100.00
65760;BME280;52496;51.082;5.066;2023-03-26T12:55:39;100098.72;;;9.76;100.00
65760;BME280;52496;51.082;5.066;2023-03-26T13:06:43;100103.28;;;9.88;100.00
65760;BME280;52496;51.082;5.066;2023-03-26T13:12:45;100103.97;;;9.97;100.00
65760;BME280;52496;51.082;5.066;2023-03-26T13:15:48;100105.03;;;10.09;100.00
65760;BME280;52496;51.082;5.066;2023-03-26T13:24:23;100120.16;;;10.30;100.00
65760;BME280;52496;51.082;5.066;2023-03-26T13:37:50;100129.31;;;10.56;100.00
65760;BME280;52496;51.082;5.066;2023-03-26T13:40:36;100131.53;;;10.52;100.00
65760;BME280;52496;51.082;5.066;2023-03-26T13:46:22;100147.56;;;10.52;100.00
65760;BME280;52496;51.082;5.066;2023-03-26T13:49:03;100146.72;;;10.39;100.00
65760;BME280;52496;51.082;5.066;2023-03-26T13:51:50;100150.59;;;10.36;100.00
65760;BME280;52496;51.082;5.066;2023-03-26T13:54:33;100153.28;;;10.36;100.00
65760;BME280;52496;51.082;5.066;2023-03-26T13:57:28;100163.97;;;10.36;100.00
65760;BME280;52496;51.082;5.066;2023-03-26T14:00:22;100155.94;;;10.36;100.00
65760;BME280;52496;51.082;5.066;2023-03-26T14:03:02;100164.16;;;10.34;100.00
65760;BME280;52496;51.082;5.066;2023-03-26T14:05:47;100172.16;;;10.34;100.00
65760;BME280;52496;51.082;5.066;2023-03-26T14:08:38;100174.03;;;10.34;100.00
65760;BME280;52496;51.082;5.066;2023-03-26T14:11:15;100182.47;;;10.38;100.00
65760;BME280;52496;51.082;5.066;2023-03-26T14:13:53;100178.38;;;10.35;100.00
65760;BME280;52496;51.082;5.066;2023-03-26T14:16:39;100183.19;;;10.25;100.00
65760;BME280;52496;51.082;5.066;2023-03-26T14:24:42;100191.31;;;10.03;100.00
65760;BME280;52496;51.082;5.066;2023-03-26T14:27:36;100199.53;;;10.02;100.00
65760;BME280;52496;51.082;5.066;2023-03-26T14:30:20;100196.69;;;10.10;100.00
65760;BME280;52496;51.082;5.066;2023-03-26T14:33:55;100202.66;;;10.12;100.00
65760;BME280;52496;51.082;5.066;2023-03-26T14:36:09;100207.59;;;10.08;100.00
65760;BME280;52496;51.082;5.066;2023-03-26T14:41:28;100216.03;;;10.12;100.00
65760;BME280;52496;51.082;5.066;2023-03-26T14:52:52;100223.50;;;10.23;100.00
65760;BME280;52496;51.082;5.066;2023-03-26T14:55:44;100233.84;;;10.33;100.00
65760;BME280;52496;51.082;5.066;2023-03-26T15:01:20;100242.81;;;10.25;100.00
65760;BME280;52496;51.082;5.066;2023-03-26T15:16:05;100269.34;;;9.92;100.00
65760;BME280;52496;51.082;5.066;2023-03-26T15:39:45;100324.53;;;9.42;100.00
65760;BME280;52496;51.082;5.066;2023-03-26T15:45:16;100338.09;;;9.26;100.00
65760;BME280;52496;51.082;5.066;2023-03-26T15:59:00;100367.50;;;8.96;100.00
65760;BME280;52496;51.082;5.066;2023-03-26T16:04:59;100383.69;;;8.80;100.00
65760;BME280;52496;51.082;5.066;2023-03-26T16:10:51;100391.13;;;8.69;100.00
65760;BME280;52496;51.082;5.066;2023-03-26T16:16:14;100409.41;;;8.72;100.00
65760;BME280;52496;51.082;5.066;2023-03-26T16:18:56;100412.53;;;8.76;100.00
65760;BME280;52496;51.082;5.066;2023-03-26T16:29:19;100430.47;;;8.67;100.00
65760;BME280;52496;51.082;5.066;2023-03-26T16:32:51;100443.31;;;8.64;100.00
65760;BME280;52496;51.082;5.066;2023-03-26T16:34:59;100461.50;;;8.60;100.00
65760;BME280;52496;51.082;5.066;2023-03-26T16:46:02;100471.16;;;8.46;100.00
65760;BME280;52496;51.082;5.066;2023-03-26T16:49:39;100479.50;;;8.43;100.00
65760;BME280;52496;51.082;5.066;2023-03-26T16:54:56;100490.31;;;8.42;100.00
65760;BME280;52496;51.082;5.066;2023-03-26T16:57:40;100499.13;;;8.42;100.00
65760;BME280;52496;51.082;5.066;2023-03-26T17:00:43;100502.00;;;8.41;100.00
65760;BME280;52496;51.082;5.066;2023-03-26T17:03:33;100512.66;;;8.41;100.00
65760;BME280;52496;51.082;5.066;2023-03-26T17:09:18;100533.31;;;8.39;100.00
65760;BME280;52496;51.082;5.066;2023-03-26T17:12:04;100527.28;;;8.37;100.00
65760;BME280;52496;51.082;5.066;2023-03-26T17:26:18;100567.94;;;8.39;100.00
65760;BME280;52496;51.082;5.066;2023-03-26T17:29:23;100573.28;;;8.39;100.00
65760;BME280;52496;51.082;5.066;2023-03-26T17:32:11;100577.91;;;8.37;100.00
65760;BME280;52496;51.082;5.066;2023-03-26T17:42:31;100614.28;;;8.30;100.00
65760;BME280;52496;51.082;5.066;2023-03-26T17:45:21;100628.94;;;8.25;100.00
65760;BME280;52496;51.082;5.066;2023-03-26T17:48:00;100631.28;;;8.20;100.00
65760;BME280;52496;51.082;5.066;2023-03-26T17:50:58;100644.28;;;8.15;100.00
65760;BME280;52496;51.082;5.066;2023-03-26T17:53:33;100644.16;;;8.09;100.00
65760;BME280;52496;51.082;5.066;2023-03-26T17:56:13;100654.34;;;8.05;100.00
65760;BME280;52496;51.082;5.066;2023-03-26T17:58:49;100651.34;;;8.00;100.00
65760;BME280;52496;51.082;5.066;2023-03-26T18:01:33;100658.03;;;7.96;100.00
65760;BME280;52496;51.082;5.066;2023-03-26T18:04:07;100668.19;;;7.92;100.00
65760;BME280;52496;51.082;5.066;2023-03-26T18:15:27;100698.38;;;7.76;100.00
65760;BME280;52496;51.082;5.066;2023-03-26T18:20:59;100695.38;;;7.71;100.00
65760;BME280;52496;51.082;5.066;2023-03-26T18:23:40;100711.00;;;7.66;100.00
65760;BME280;52496;51.082;5.066;2023-03-26T18:26:20;100706.03;;;7.63;100.00
65760;BME280;52496;51.082;5.066;2023-03-26T18:31:51;100729.00;;;7.56;100.00
65760;BME280;52496;51.082;5.066;2023-03-26T18:34:25;100735.47;;;7.53;100.00
65760;BME280;52496;51.082;5.066;2023-03-26T18:37:23;100740.31;;;7.50;100.00
65760;BME280;52496;51.082;5.066;2023-03-26T18:40:17;100744.31;;;7.46;100.00
65760;BME280;52496;51.082;5.066;2023-03-26T18:42:54;100757.94;;;7.43;100.00
65760;BME280;52496;51.082;5.066;2023-03-26T18:45:27;100761.75;;;7.40;100.00
65760;BME280;52496;51.082;5.066;2023-03-26T18:48:01;100759.25;;;7.39;100.00
65760;BME280;52496;51.082;5.066;2023-03-26T18:50:35;100778.19;;;7.35;100.00
65760;BME280;52496;51.082;5.066;2023-03-26T18:53:22;100789.19;;;7.32;100.00
65760;BME280;52496;51.082;5.066;2023-03-26T18:55:54;100788.53;;;7.30;100.00
65760;BME280;52496;51.082;5.066;2023-03-26T18:58:33;100799.50;;;7.27;100.00
65760;BME280;52496;51.082;5.066;2023-03-26T19:01:07;100796.16;;;7.25;100.00
65760;BME280;52496;51.082;5.066;2023-03-26T19:03:40;100813.44;;;7.21;100.00
65760;BME280;52496;51.082;5.066;2023-03-26T19:06:14;100813.44;;;7.21;100.00
65760;BME280;52496;51.082;5.066;2023-03-26T19:08:46;100828.56;;;7.21;100.00
65760;BME280;52496;51.082;5.066;2023-03-26T19:11:17;100819.25;;;7.17;100.00
65760;BME280;52496;51.082;5.066;2023-03-26T19:13:59;100834.38;;;7.16;100.00
65760;BME280;52496;51.082;5.066;2023-03-26T19:16:33;100838.00;;;7.15;100.00
65760;BME280;52496;51.082;5.066;2023-03-26T19:19:06;100846.31;;;7.12;100.00
65760;BME280;52496;51.082;5.066;2023-03-26T19:21:37;100853.78;;;7.08;100.00